Time;durP1;ratioP1;P1;durP2;ratioP2;P2;SDS_P1;SDS_P2;PMS_P1;PMS_P2;Temp;Humidity;BMP_temperature;BMP_pressure;BME280_temperature;BME280_humidity;BME280_pressure;Samples;Min_cycle;Max_cycle;Signal;HPM_P1;HPM_P2
2022/05/10 00:01:53;;;;;;;5.25;4.75;;;20.60;51.40;;;;;;5013995;28;20685;-71
2022/05/10 00:04:21;;;;;;;5.45;5.05;;;20.60;51.40;;;;;;5029231;28;20204;-72
2022/05/10 00:06:48;;;;;;;5.20;4.80;;;20.50;51.40;;;;;;5012481;28;20266;-72
2022/05/10 00:09:16;;;;;;;5.60;5.20;;;20.50;51.40;;;;;;5012413;28;20195;-72
2022/05/10 00:11:43;;;;;;;5.13;4.72;;;20.50;51.50;;;;;;5012370;28;20662;-71
2022/05/10 00:14:10;;;;;;;5.30;4.90;;;20.50;51.40;;;;;;5012311;28;20674;-72
2022/05/10 00:16:39;;;;;;;5.07;4.72;;;20.50;51.50;;;;;;5013752;28;20200;-71
2022/05/10 00:19:08;;;;;;;6.03;5.43;;;20.50;51.50;;;;;;5012391;28;20595;-70
2022/05/10 00:21:36;;;;;;;5.75;5.35;;;20.50;51.50;;;;;;5012518;28;20304;-72
2022/05/10 00:24:04;;;;;;;5.00;4.70;;;20.40;51.30;;;;;;5012210;28;20584;-72
2022/05/10 00:26:31;;;;;;;5.32;4.93;;;20.50;51.40;;;;;;5015593;28;20192;-71
2022/05/10 00:28:58;;;;;;;5.60;5.20;;;20.40;51.40;;;;;;5016206;28;20279;-71
2022/05/10 00:31:25;;;;;;;5.15;4.85;;;20.40;51.50;;;;;;5016134;28;20216;-72
2022/05/10 00:33:51;;;;;;;5.47;5.07;;;20.40;51.50;;;;;;5016085;28;20300;-71
2022/05/10 00:36:22;;;;;;;5.55;5.05;;;20.40;51.50;;;;;;5016136;28;20205;-72
2022/05/10 00:38:49;;;;;;;5.20;4.80;;;20.40;51.50;;;;;;5017194;28;20200;-72
2022/05/10 00:41:20;;;;;;;5.40;5.00;;;20.40;51.50;;;;;;5016375;28;20213;-70
2022/05/10 00:43:49;;;;;;;5.35;4.95;;;20.40;51.50;;;;;;5017185;28;20191;-71
2022/05/10 00:46:18;;;;;;;5.25;4.85;;;20.30;51.40;;;;;;5015996;28;20197;-71
2022/05/10 00:48:46;;;;;;;5.38;4.97;;;20.30;51.50;;;;;;5016033;28;20193;-72
2022/05/10 00:51:16;;;;;;;5.18;4.88;;;20.30;51.40;;;;;;5015743;28;20715;-71
2022/05/10 00:53:57;;;;;;;4.90;4.60;;;20.30;51.50;;;;;;5015847;28;20196;-71
2022/05/10 00:56:29;;;;;;;5.32;4.93;;;20.30;51.50;;;;;;5016782;28;20188;-72
2022/05/10 00:58:58;;;;;;;5.05;4.65;;;20.30;51.50;;;;;;5032126;28;20212;-72
2022/05/10 01:01:27;;;;;;;5.47;5.07;;;20.30;51.50;;;;;;5015554;28;20223;-72
2022/05/10 01:03:55;;;;;;;5.25;4.88;;;20.20;51.40;;;;;;5015524;28;20672;-72
2022/05/10 01:06:25;;;;;;;5.82;5.32;;;20.30;51.50;;;;;;5015570;28;20264;-71
2022/05/10 01:08:57;;;;;;;5.45;5.05;;;20.20;51.50;;;;;;5015377;28;20224;-72
2022/05/10 01:11:27;;;;;;;5.20;4.80;;;20.20;51.50;;;;;;5015317;28;20681;-71
2022/05/10 01:13:57;;;;;;;4.88;4.57;;;20.20;51.60;;;;;;5015452;28;20201;-72
2022/05/10 01:16:24;;;;;;;5.68;5.28;;;20.20;51.60;;;;;;5015256;28;20271;-72
2022/05/10 01:18:52;;;;;;;5.40;5.00;;;20.20;51.40;;;;;;5015378;28;20776;-71
2022/05/10 01:21:30;;;;;;;5.38;4.95;;;20.20;51.40;;;;;;5015211;28;20744;-72
2022/05/10 01:24:19;;;;;;;5.40;5.00;;;20.20;51.50;;;;;;5015127;28;20575;-71
2022/05/10 01:27:02;;;;;;;5.55;4.90;;;20.20;51.50;;;;;;5014077;28;20209;-72
2022/05/10 01:29:33;;;;;;;5.60;5.20;;;20.10;51.50;;;;;;5016717;28;20177;-72
2022/05/10 01:34:48;;;;;;;5.35;4.95;;;20.10;51.50;;;;;;5015048;28;20219;-71
2022/05/10 01:37:16;;;;;;;5.45;5.05;;;20.10;51.50;;;;;;5016146;28;20205;-72
2022/05/10 01:39:45;;;;;;;5.55;5.05;;;20.10;52.10;;;;;;5016446;28;20637;-71
2022/05/10 01:42:14;;;;;;;5.20;4.80;;;20.10;51.50;;;;;;5016200;28;20192;-72
2022/05/10 01:44:46;;;;;;;5.25;4.85;;;20.10;51.50;;;;;;5014812;28;20692;-72
2022/05/10 01:47:15;;;;;;;6.05;5.65;;;20.10;51.50;;;;;;5016088;28;20647;-72
2022/05/10 01:49:44;;;;;;;5.63;5.22;;;20.10;51.70;;;;;;5015045;28;20227;-71
2022/05/10 01:52:15;;;;;;;5.40;4.90;;;20.10;51.60;;;;;;5015379;28;20200;-71
2022/05/10 01:55:01;;;;;;;5.45;5.05;;;20.00;51.50;;;;;;5016267;28;20191;-72
2022/05/10 01:57:29;;;;;;;5.43;4.93;;;20.00;51.50;;;;;;5015985;28;20192;-71
2022/05/10 02:00:01;;;;;;;4.82;4.53;;;20.00;51.60;;;;;;5031136;28;20241;-72
2022/05/10 02:02:28;;;;;;;5.28;4.88;;;20.00;51.70;;;;;;5015735;28;20256;-72
2022/05/10 02:04:56;;;;;;;5.30;4.97;;;20.00;51.60;;;;;;5014596;28;20201;-72
2022/05/10 02:07:25;;;;;;;5.40;4.97;;;20.00;51.50;;;;;;5014416;28;20673;-72
2022/05/10 02:09:57;;;;;;;5.55;5.15;;;20.00;51.60;;;;;;5015849;28;20201;-72
2022/05/10 02:12:27;;;;;;;5.40;5.00;;;19.90;51.60;;;;;;5014939;28;20574;-71
2022/05/10 02:14:57;;;;;;;5.28;4.97;;;20.00;51.60;;;;;;5014344;28;20674;-72
2022/05/10 02:17:26;;;;;;;5.25;4.85;;;20.00;51.60;;;;;;5014076;28;20201;-71
2022/05/10 02:19:57;;;;;;;5.35;4.90;;;20.00;51.70;;;;;;5015504;28;20199;-72
2022/05/10 02:22:31;;;;;;;5.22;4.82;;;19.90;51.60;;;;;;5014158;28;20259;-72
2022/05/10 02:24:59;;;;;;;5.07;4.72;;;19.90;51.60;;;;;;5014227;28;20213;-72
2022/05/10 02:27:29;;;;;;;5.38;4.88;;;19.90;51.60;;;;;;5013961;28;20196;-70
2022/05/10 02:29:58;;;;;;;4.97;4.68;;;19.90;51.60;;;;;;5014126;28;20193;-72
2022/05/10 02:35:14;;;;;;;5.32;4.82;;;19.90;51.60;;;;;;5013734;28;20204;-72
2022/05/10 02:37:41;;;;;;;5.45;5.05;;;19.80;51.50;;;;;;5013827;28;20244;-72
2022/05/10 02:40:09;;;;;;;4.97;4.68;;;19.80;51.50;;;;;;5013556;28;20235;-72
2022/05/10 02:42:37;;;;;;;4.70;4.40;;;19.80;51.60;;;;;;5015712;28;20200;-67
2022/05/10 02:45:07;;;;;;;5.00;4.60;;;19.80;51.60;;;;;;5014740;28;20193;-67
2022/05/10 02:47:38;;;;;;;5.47;5.07;;;19.80;51.70;;;;;;5029957;28;20205;-66
2022/05/10 02:50:11;;;;;;;5.30;4.90;;;19.80;51.60;;;;;;5012859;28;20220;-67
2022/05/10 02:52:39;;;;;;;5.35;4.95;;;19.80;51.60;;;;;;5013441;28;20192;-66
2022/05/10 02:55:09;;;;;;;5.22;4.82;;;19.70;51.40;;;;;;5014927;28;20195;-67
2022/05/10 02:57:36;;;;;;;5.38;4.97;;;19.80;51.60;;;;;;5013507;28;20201;-66
2022/05/10 03:00:06;;;;;;;5.60;5.20;;;19.70;51.40;;;;;;5013218;28;20224;-66
2022/05/10 03:02:35;;;;;;;5.78;5.38;;;19.80;51.60;;;;;;5014500;28;20189;-67
2022/05/10 03:05:05;;;;;;;5.72;5.22;;;19.70;51.70;;;;;;5013204;28;20201;-66
2022/05/10 03:07:33;;;;;;;5.35;4.95;;;19.70;51.60;;;;;;5014426;28;20201;-67
2022/05/10 03:10:00;;;;;;;5.28;4.82;;;19.70;51.50;;;;;;5013644;28;20307;-66
2022/05/10 03:12:27;;;;;;;5.32;4.93;;;19.70;51.50;;;;;;5014848;28;20200;-66
2022/05/10 03:14:57;;;;;;;5.22;4.82;;;19.70;51.60;;;;;;5014390;28;20181;-66
2022/05/10 03:17:25;;;;;;;5.63;5.13;;;19.70;51.80;;;;;;5013003;28;20205;-66
2022/05/10 03:19:52;;;;;;;5.40;4.90;;;19.70;51.70;;;;;;5012904;28;20586;-67
2022/05/10 03:22:21;;;;;;;5.72;5.32;;;19.70;51.80;;;;;;5014271;28;20243;-67
2022/05/10 03:24:48;;;;;;;5.57;5.18;;;19.70;51.70;;;;;;5014132;28;20693;-66
2022/05/10 03:27:16;;;;;;;5.35;4.95;;;19.80;51.90;;;;;;5012830;28;20205;-67
2022/05/10 03:29:43;;;;;;;5.05;4.70;;;19.80;51.80;;;;;;5013948;28;20221;-66
2022/05/10 03:32:10;;;;;;;5.35;4.95;;;19.80;51.60;;;;;;5014440;28;20197;-66
2022/05/10 03:34:55;;;;;;;5.22;4.82;;;19.90;51.60;;;;;;5013298;28;20196;-67
2022/05/10 03:37:24;;;;;;;5.05;4.65;;;19.90;51.60;;;;;;5012726;28;20189;-66
2022/05/10 03:39:51;;;;;;;5.28;4.88;;;20.00;51.40;;;;;;5013820;28;20339;-66
2022/05/10 03:42:18;;;;;;;5.18;4.78;;;20.00;51.40;;;;;;5013882;28;20251;-66
2022/05/10 03:44:49;;;;;;;5.78;5.38;;;20.00;51.20;;;;;;5012605;28;20201;-66
2022/05/10 03:47:17;;;;;;;5.18;4.80;;;20.00;51.10;;;;;;5013881;28;20599;-66
2022/05/10 03:49:45;;;;;;;5.32;4.88;;;20.10;51.80;;;;;;5012600;28;20220;-66
2022/05/10 03:52:14;;;;;;;5.38;4.85;;;20.10;51.10;;;;;;5013693;28;20560;-66
2022/05/10 03:54:43;;;;;;;5.55;5.15;;;20.10;51.10;;;;;;5012641;28;20291;-66
2022/05/10 03:57:10;;;;;;;5.70;5.30;;;20.10;51.10;;;;;;5012825;28;20208;-67
2022/05/10 03:59:41;;;;;;;5.68;5.28;;;20.10;51.10;;;;;;5029771;28;20213;-67
2022/05/10 04:02:09;;;;;;;5.97;5.47;;;20.10;50.90;;;;;;5013987;28;20236;-69
2022/05/10 04:04:36;;;;;;;5.60;5.20;;;20.10;51.00;;;;;;5029249;28;20205;-67
2022/05/10 04:07:03;;;;;;;5.10;4.80;;;20.10;51.10;;;;;;5012813;28;20219;-66
2022/05/10 04:09:30;;;;;;;4.88;4.57;;;20.00;50.90;;;;;;5030521;28;20196;-67
2022/05/10 04:11:59;;;;;;;5.05;4.68;;;20.00;51.00;;;;;;5012952;28;20244;-67
2022/05/10 04:14:26;;;;;;;4.95;4.65;;;20.00;50.90;;;;;;5012824;28;20703;-67
2022/05/10 04:16:53;;;;;;;5.15;4.75;;;19.90;51.00;;;;;;5012656;28;20201;-67
2022/05/10 04:19:20;;;;;;;5.45;5.05;;;19.90;51.00;;;;;;5012556;28;20666;-66
2022/05/10 04:21:48;;;;;;;5.70;5.30;;;19.90;50.90;;;;;;5012324;28;20255;-66
2022/05/10 04:24:15;;;;;;;6.13;5.63;;;19.90;51.00;;;;;;5013594;28;20193;-67
2022/05/10 04:26:41;;;;;;;5.03;4.65;;;19.90;50.90;;;;;;5012441;28;20556;-67
2022/05/10 04:29:10;;;;;;;5.10;4.70;;;19.90;50.90;;;;;;5012406;28;20197;-66
2022/05/10 04:31:37;;;;;;;5.60;5.20;;;20.00;51.10;;;;;;5013386;28;20220;-67
2022/05/10 04:34:04;;;;;;;5.55;5.05;;;19.90;51.00;;;;;;5012115;28;20197;-66
2022/05/10 04:36:31;;;;;;;5.35;4.95;;;20.00;51.10;;;;;;5012211;28;20654;-66
2022/05/10 04:38:58;;;;;;;5.90;5.43;;;20.00;51.00;;;;;;5012325;28;20234;-66
2022/05/10 04:41:26;;;;;;;6.25;5.85;;;20.00;51.10;;;;;;5012219;28;20224;-66
2022/05/10 04:43:53;;;;;;;5.10;4.70;;;20.00;51.70;;;;;;5016639;28;20188;-70
2022/05/10 04:46:22;;;;;;;5.15;4.85;;;20.00;52.10;;;;;;5016132;28;20193;-70
2022/05/10 04:48:50;;;;;;;5.50;5.15;;;20.10;52.20;;;;;;5013145;28;20212;-69
2022/05/10 04:51:17;;;;;;;6.45;5.95;;;20.20;52.00;;;;;;5015255;28;20217;-69
2022/05/10 04:53:44;;;;;;;6.45;5.85;;;20.30;51.30;;;;;;5028993;28;20212;-70
2022/05/10 04:56:11;;;;;;;6.53;5.93;;;20.40;51.00;;;;;;5012198;28;20255;-70
2022/05/10 04:58:38;;;;;;;5.95;5.50;;;20.60;50.70;;;;;;5012783;28;20197;-70
2022/05/10 05:01:07;;;;;;;6.32;5.82;;;20.70;50.70;;;;;;5013445;28;20220;-70
2022/05/10 05:03:36;;;;;;;6.13;5.63;;;20.80;50.50;;;;;;5012542;28;20700;-70
2022/05/10 05:06:03;;;;;;;6.25;5.55;;;21.00;50.40;;;;;;5012391;28;20201;-69
2022/05/10 05:08:31;;;;;;;6.45;5.85;;;21.10;50.30;;;;;;5013361;28;20258;-67
2022/05/10 05:10:58;;;;;;;6.65;6.05;;;21.30;50.00;;;;;;5013270;28;20307;-66
2022/05/10 05:13:25;;;;;;;5.97;5.57;;;21.40;49.40;;;;;;5015071;28;20211;-67
2022/05/10 05:15:52;;;;;;;6.40;5.90;;;21.60;49.30;;;;;;5017039;28;20193;-67
2022/05/10 05:18:19;;;;;;;6.60;6.00;;;21.70;49.10;;;;;;5015318;28;20258;-67
2022/05/10 05:20:48;;;;;;;6.20;5.60;;;21.80;49.00;;;;;;5014977;28;20235;-67
2022/05/10 05:23:17;;;;;;;7.18;6.55;;;22.00;48.80;;;;;;5015216;28;20208;-67
2022/05/10 05:25:44;;;;;;;6.88;6.28;;;22.10;48.60;;;;;;5015110;28;20685;-66
2022/05/10 05:28:11;;;;;;;6.50;6.00;;;22.20;48.40;;;;;;5015279;28;20208;-67
2022/05/10 05:30:38;;;;;;;6.68;6.13;;;22.30;48.10;;;;;;5015160;28;20304;-67
2022/05/10 05:33:06;;;;;;;6.85;6.25;;;22.40;47.80;;;;;;5016233;28;20275;-67
2022/05/10 05:35:33;;;;;;;6.20;5.70;;;22.50;47.80;;;;;;5015362;28;20239;-67
2022/05/10 05:38:01;;;;;;;6.03;5.57;;;22.70;47.40;;;;;;5016443;28;20200;-67
2022/05/10 05:40:28;;;;;;;5.93;5.53;;;22.70;47.20;;;;;;5014942;28;20229;-67
2022/05/10 05:42:55;;;;;;;6.40;5.90;;;22.80;46.90;;;;;;5016195;28;20200;-66
2022/05/10 05:45:24;;;;;;;6.90;6.30;;;22.90;46.70;;;;;;5014790;28;20296;-67
2022/05/10 05:47:53;;;;;;;6.10;5.60;;;23.00;46.60;;;;;;5016867;28;20189;-70
2022/05/10 05:50:21;;;;;;;6.38;5.88;;;23.10;46.50;;;;;;5014770;28;20248;-69
2022/05/10 05:52:49;;;;;;;6.18;5.68;;;23.20;46.20;;;;;;5031321;28;20558;-70
2022/05/10 05:55:17;;;;;;;5.88;5.43;;;23.30;46.20;;;;;;5014745;28;20197;-70
2022/05/10 05:57:45;;;;;;;6.25;5.75;;;23.40;46.00;;;;;;5014694;28;20207;-70
2022/05/10 06:00:16;;;;;;;6.10;5.60;;;23.40;45.70;;;;;;5015649;28;20299;-70
2022/05/10 06:02:42;;;;;;;6.07;5.60;;;23.50;45.70;;;;;;5016316;28;20204;-70
2022/05/10 06:05:10;;;;;;;5.55;5.15;;;23.60;46.00;;;;;;5014636;28;20205;-70
2022/05/10 06:07:37;;;;;;;6.00;5.50;;;23.60;45.40;;;;;;5015887;28;20207;-70
2022/05/10 06:10:05;;;;;;;6.05;5.55;;;23.60;45.30;;;;;;5016062;28;20200;-70
2022/05/10 06:12:33;;;;;;;5.75;5.25;;;23.70;45.30;;;;;;5030926;28;20292;-69
2022/05/10 06:15:07;;;;;;;5.55;5.05;;;23.70;45.20;;;;;;5014308;28;20197;-70
2022/05/10 06:17:35;;;;;;;5.47;5.03;;;23.70;45.10;;;;;;5014209;28;20251;-69
2022/05/10 06:20:06;;;;;;;5.03;4.72;;;23.70;45.10;;;;;;5013912;28;20228;-70
2022/05/10 06:22:34;;;;;;;5.82;5.40;;;23.80;45.20;;;;;;5030659;28;20544;-70
2022/05/10 06:25:02;;;;;;;5.28;4.88;;;23.80;45.10;;;;;;5013582;28;20204;-70
2022/05/10 06:27:29;;;;;;;5.30;4.90;;;23.80;45.00;;;;;;5014113;28;20200;-70
2022/05/10 06:29:58;;;;;;;4.97;4.68;;;23.80;45.00;;;;;;5014685;28;20193;-72
2022/05/10 06:32:25;;;;;;;4.78;4.43;;;23.80;44.90;;;;;;5015294;28;20200;-69
2022/05/10 06:34:53;;;;;;;5.18;4.68;;;23.80;44.80;;;;;;5013934;28;20204;-69
2022/05/10 06:40:06;;;;;;;5.22;4.72;;;24.00;44.50;;;;;;5015102;28;20225;-70
2022/05/10 06:42:34;;;;;;;5.03;4.65;;;24.00;44.40;;;;;;5013705;28;20197;-70
2022/05/10 06:45:02;;;;;;;5.07;4.68;;;24.20;44.40;;;;;;5013632;28;20204;-70
2022/05/10 06:47:29;;;;;;;5.22;4.72;;;24.20;44.10;;;;;;5014876;28;20184;-70
2022/05/10 06:49:56;;;;;;;5.25;4.85;;;24.30;43.90;;;;;;5013582;28;20200;-70
2022/05/10 06:52:24;;;;;;;4.80;4.50;;;24.40;43.80;;;;;;5014885;28;20185;-70
2022/05/10 06:54:51;;;;;;;4.68;4.28;;;24.50;43.60;;;;;;5013691;28;20201;-69
2022/05/10 06:57:17;;;;;;;4.93;4.53;;;24.50;43.30;;;;;;5014947;28;20212;-70
2022/05/10 06:59:44;;;;;;;4.47;4.10;;;24.60;43.20;;;;;;5013556;28;20216;-70
2022/05/10 07:02:13;;;;;;;4.95;4.55;;;24.70;43.00;;;;;;5013351;28;20232;-70
2022/05/10 07:04:40;;;;;;;4.75;4.35;;;24.80;42.90;;;;;;5014623;28;20557;-70
2022/05/10 07:07:08;;;;;;;4.90;4.50;;;24.90;42.80;;;;;;5014548;28;20283;-70
2022/05/10 07:09:35;;;;;;;4.72;4.43;;;24.90;42.60;;;;;;5013404;28;20197;-70
2022/05/10 07:12:03;;;;;;;5.10;4.70;;;25.00;42.50;;;;;;5013198;28;20252;-70
2022/05/10 07:14:30;;;;;;;4.53;4.22;;;25.00;42.50;;;;;;5014354;28;20197;-69
2022/05/10 07:16:57;;;;;;;4.65;4.25;;;25.10;42.30;;;;;;5013175;28;20251;-70
2022/05/10 07:19:26;;;;;;;4.78;4.47;;;25.10;42.20;;;;;;5013342;28;20207;-70
2022/05/10 07:21:53;;;;;;;4.30;4.00;;;25.20;42.00;;;;;;5029552;28;20724;-70
2022/05/10 07:24:21;;;;;;;4.70;4.30;;;25.30;41.90;;;;;;5013164;28;20284;-70
2022/05/10 07:26:47;;;;;;;4.32;4.03;;;25.40;41.80;;;;;;5013074;28;20193;-70
2022/05/10 07:29:15;;;;;;;5.07;4.68;;;25.40;41.60;;;;;;5013023;28;20205;-70
2022/05/10 07:31:42;;;;;;;4.57;4.28;;;25.40;41.40;;;;;;5012927;28;20303;-70
2022/05/10 07:34:09;;;;;;;4.38;3.97;;;25.50;41.50;;;;;;5013127;28;20220;-70
2022/05/10 07:36:38;;;;;;;4.50;4.20;;;25.50;41.40;;;;;;5012994;28;20204;-69
2022/05/10 07:39:07;;;;;;;4.50;4.10;;;25.60;41.30;;;;;;5014013;28;20263;-70
2022/05/10 07:41:34;;;;;;;4.60;4.25;;;25.60;41.20;;;;;;5014048;28;20224;-70
2022/05/10 07:44:01;;;;;;;4.57;4.28;;;25.60;41.10;;;;;;5012906;28;20291;-70
2022/05/10 07:46:29;;;;;;;4.88;4.47;;;25.60;41.00;;;;;;5012628;28;20558;-70
2022/05/10 07:48:55;;;;;;;4.50;4.10;;;25.70;41.10;;;;;;5014037;28;20192;-70
2022/05/10 07:51:23;;;;;;;4.18;3.88;;;25.70;41.10;;;;;;5012595;28;20772;-70
2022/05/10 07:53:51;;;;;;;4.55;4.25;;;25.70;41.00;;;;;;5012543;28;20207;-70
2022/05/10 07:56:18;;;;;;;4.45;4.05;;;25.80;40.90;;;;;;5012617;28;20196;-70
2022/05/10 07:58:46;;;;;;;4.50;4.20;;;25.80;40.80;;;;;;5012451;28;20200;-70
2022/05/10 08:01:13;;;;;;;4.40;4.10;;;25.90;40.80;;;;;;5012407;28;20708;-70
2022/05/10 08:03:43;;;;;;;4.53;4.22;;;25.90;40.60;;;;;;5012491;28;20654;-70
2022/05/10 08:06:10;;;;;;;4.60;4.25;;;25.90;40.40;;;;;;5013987;28;20192;-70
2022/05/10 08:08:37;;;;;;;4.85;4.53;;;26.00;40.30;;;;;;5013298;28;20197;-70
2022/05/10 08:11:06;;;;;;;4.47;4.07;;;26.00;40.20;;;;;;5012394;28;20217;-70
2022/05/10 08:13:33;;;;;;;4.40;4.00;;;26.10;40.10;;;;;;5013746;28;20283;-70
2022/05/10 08:16:00;;;;;;;4.18;3.92;;;26.20;40.00;;;;;;5013944;28;20275;-69
2022/05/10 08:18:27;;;;;;;4.47;4.07;;;26.20;40.00;;;;;;5012707;28;20576;-69
2022/05/10 08:20:55;;;;;;;4.38;4.07;;;26.20;40.40;;;;;;5012359;28;20224;-70
2022/05/10 08:23:23;;;;;;;4.22;3.85;;;26.30;39.80;;;;;;5013525;28;20253;-70
2022/05/10 08:25:50;;;;;;;4.30;4.00;;;26.30;39.70;;;;;;5012303;28;20315;-70
2022/05/10 08:28:18;;;;;;;4.50;4.20;;;26.40;39.60;;;;;;5013662;28;20188;-70
2022/05/10 08:30:46;;;;;;;4.40;4.10;;;26.30;39.60;;;;;;5013779;28;20227;-70
2022/05/10 08:33:13;;;;;;;4.40;4.10;;;26.30;39.60;;;;;;5012241;28;20200;-70
2022/05/10 08:35:42;;;;;;;4.00;3.70;;;26.30;39.70;;;;;;5012161;28;20608;-70
2022/05/10 08:38:09;;;;;;;4.43;4.13;;;26.30;39.70;;;;;;5012371;28;20200;-70
2022/05/10 08:40:38;;;;;;;4.38;4.07;;;26.40;39.70;;;;;;5012322;28;20256;-70
2022/05/10 08:43:08;;;;;;;4.20;4.00;;;26.40;39.70;;;;;;5012072;28;20284;-70
2022/05/10 08:45:40;;;;;;;4.07;3.78;;;26.40;39.60;;;;;;5013595;28;20193;-70
2022/05/10 08:48:07;;;;;;;4.30;4.00;;;26.40;39.50;;;;;;5015549;28;20297;-70
2022/05/10 08:50:34;;;;;;;3.97;3.67;;;26.40;39.50;;;;;;5017456;28;20216;-70
2022/05/10 08:53:01;;;;;;;4.00;3.70;;;26.50;39.40;;;;;;5017570;28;20279;-70
2022/05/10 08:55:29;;;;;;;4.20;3.90;;;26.50;39.30;;;;;;5017911;28;20216;-70
2022/05/10 08:58:04;;;;;;;4.18;3.88;;;26.50;39.90;;;;;;5023632;28;20193;-70
2022/05/10 09:00:33;;;;;;;4.22;3.83;;;26.50;39.20;;;;;;5017775;28;20212;-70
2022/05/10 09:03:15;;;;;;;4.18;3.67;;;26.50;39.20;;;;;;5017380;28;20174;-70
2022/05/10 09:05:43;;;;;;;4.15;3.90;;;26.50;39.20;;;;;;5016378;28;20659;-71
2022/05/10 09:08:14;;;;;;;3.90;3.60;;;26.60;39.20;;;;;;5016367;28;20200;-70
2022/05/10 09:10:45;;;;;;;4.20;3.90;;;26.60;39.10;;;;;;5015895;28;20252;-70
2022/05/10 09:13:14;;;;;;;3.90;3.67;;;26.60;39.10;;;;;;5017136;28;20192;-70
2022/05/10 09:15:44;;;;;;;4.10;3.80;;;26.60;39.10;;;;;;5023597;28;20197;-70
2022/05/10 09:18:17;;;;;;;4.28;3.97;;;26.60;38.90;;;;;;5017652;28;20639;-70
2022/05/10 09:20:52;;;;;;;3.90;3.60;;;26.60;39.00;;;;;;5016056;28;20237;-70
2022/05/10 09:23:24;;;;;;;4.20;3.90;;;26.60;39.00;;;;;;5016749;28;20179;-70
2022/05/10 09:25:55;;;;;;;3.78;3.58;;;26.60;39.70;;;;;;5016646;28;20169;-70
2022/05/10 09:28:25;;;;;;;4.00;3.70;;;26.60;39.00;;;;;;5016878;28;20227;-70
2022/05/10 09:36:25;;;;;;;4.05;3.75;;;26.60;39.10;;;;;;5015037;28;20197;-70
2022/05/10 09:38:53;;;;;;;4.20;3.90;;;26.50;39.00;;;;;;5015101;28;20229;-70
2022/05/10 09:41:25;;;;;;;4.07;3.78;;;26.50;39.70;;;;;;5014738;28;20307;-70
2022/05/10 09:43:52;;;;;;;4.05;3.80;;;26.50;39.20;;;;;;5015011;28;20204;-70
2022/05/10 09:46:21;;;;;;;3.80;3.60;;;26.50;39.20;;;;;;5016123;28;20196;-70
2022/05/10 09:48:50;;;;;;;3.90;3.70;;;26.50;39.20;;;;;;5015386;28;20693;-70
2022/05/10 09:51:24;;;;;;;3.75;3.45;;;26.50;39.20;;;;;;5014722;28;20240;-70
2022/05/10 09:53:52;;;;;;;3.85;3.63;;;26.50;39.20;;;;;;5016353;28;20173;-70
2022/05/10 09:56:31;;;;;;;3.70;3.50;;;26.50;39.30;;;;;;5014601;28;20205;-69
2022/05/10 09:58:59;;;;;;;3.92;3.72;;;26.40;39.30;;;;;;5015349;28;20243;-70
2022/05/10 10:01:41;;;;;;;3.90;3.58;;;26.40;39.30;;;;;;5031023;28;20221;-70
2022/05/10 10:04:17;;;;;;;3.83;3.58;;;26.40;39.40;;;;;;5016159;28;20223;-70
2022/05/10 10:06:44;;;;;;;4.10;3.80;;;26.30;39.40;;;;;;5015601;28;20306;-70
2022/05/10 10:09:11;;;;;;;3.85;3.60;;;26.30;39.40;;;;;;5015858;28;20242;-70
2022/05/10 10:11:39;;;;;;;4.00;3.70;;;26.30;39.50;;;;;;5014464;28;20282;-70
2022/05/10 10:14:07;;;;;;;4.10;3.78;;;26.30;39.60;;;;;;5015901;28;20623;-70
2022/05/10 10:16:35;;;;;;;3.80;3.50;;;26.20;39.60;;;;;;5016110;28;20272;-70
2022/05/10 10:19:05;;;;;;;3.80;3.50;;;26.20;39.70;;;;;;5014456;28;20232;-71
2022/05/10 10:21:34;;;;;;;3.47;3.28;;;26.20;39.80;;;;;;5014110;28;20224;-71
2022/05/10 10:24:02;;;;;;;3.80;3.60;;;26.20;39.80;;;;;;5015761;28;20221;-71
2022/05/10 10:26:38;;;;;;;3.72;3.53;;;26.20;39.90;;;;;;5014340;28;20570;-71
2022/05/10 10:29:14;;;;;;;3.95;3.67;;;26.10;39.90;;;;;;5014208;28;20189;-70
2022/05/10 10:31:43;;;;;;;3.95;3.75;;;26.10;40.00;;;;;;5014124;28;20705;-70
2022/05/10 10:34:15;;;;;;;3.70;3.50;;;26.10;40.10;;;;;;5014744;28;20197;-70
2022/05/10 10:36:48;;;;;;;3.80;3.50;;;26.00;40.10;;;;;;5016060;28;20199;-71
2022/05/10 10:39:18;;;;;;;3.97;3.67;;;26.00;40.20;;;;;;5015476;28;20181;-70
2022/05/10 10:41:48;;;;;;;3.67;3.38;;;25.90;40.40;;;;;;5014128;28;20743;-71
2022/05/10 10:44:17;;;;;;;4.07;3.78;;;25.90;40.40;;;;;;5015336;28;20192;-71
2022/05/10 10:46:48;;;;;;;3.60;3.40;;;25.80;40.50;;;;;;5013890;28;20196;-70
2022/05/10 10:49:15;;;;;;;3.85;3.65;;;25.80;40.70;;;;;;5013972;28;20662;-70
2022/05/10 10:51:45;;;;;;;3.70;3.40;;;25.70;40.80;;;;;;5018961;28;20211;-70
2022/05/10 10:54:17;;;;;;;3.65;3.45;;;25.70;40.90;;;;;;5025056;28;20279;-70
2022/05/10 10:56:49;;;;;;;3.70;3.50;;;25.60;41.00;;;;;;5013885;28;20212;-70
2022/05/10 10:59:28;;;;;;;3.63;3.42;;;25.60;41.10;;;;;;5013783;28;20683;-70
2022/05/10 11:02:03;;;;;;;3.70;3.50;;;25.60;41.00;;;;;;5014922;28;20216;-70
2022/05/10 11:04:51;;;;;;;4.15;3.85;;;25.50;41.00;;;;;;5013566;28;20226;-71
2022/05/10 11:07:22;;;;;;;3.80;3.60;;;25.50;41.20;;;;;;5013505;28;20208;-70
2022/05/10 11:09:51;;;;;;;3.60;3.40;;;25.50;41.30;;;;;;5013140;28;20287;-70
2022/05/10 11:12:32;;;;;;;3.70;3.40;;;25.50;41.30;;;;;;5029732;28;20294;-70
2022/05/10 11:15:07;;;;;;;3.67;3.47;;;25.40;41.40;;;;;;5013361;28;20563;-70
2022/05/10 11:17:41;;;;;;;3.78;3.47;;;25.40;41.40;;;;;;5013330;28;20200;-70
2022/05/10 11:20:17;;;;;;;3.60;3.40;;;25.40;41.50;;;;;;5013250;28;20278;-70
2022/05/10 11:22:48;;;;;;;3.63;3.33;;;25.40;41.50;;;;;;5014480;28;20200;-71
2022/05/10 11:25:22;;;;;;;3.95;3.67;;;25.40;41.60;;;;;;5029676;28;20193;-71
2022/05/10 11:28:02;;;;;;;3.90;3.60;;;25.40;41.60;;;;;;5013311;28;20194;-70
2022/05/10 11:30:31;;;;;;;3.88;3.58;;;25.40;41.60;;;;;;5013092;28;20636;-70
2022/05/10 11:33:07;;;;;;;3.67;3.47;;;25.40;41.60;;;;;;5014379;28;20271;-70
2022/05/10 11:35:47;;;;;;;3.65;3.45;;;25.40;41.70;;;;;;5012905;28;20215;-71
2022/05/10 11:38:23;;;;;;;3.78;3.50;;;25.40;41.80;;;;;;5013115;28;20641;-71
2022/05/10 11:41:01;;;;;;;3.70;3.40;;;25.40;41.80;;;;;;5012813;28;20217;-70
2022/05/10 11:43:49;;;;;;;3.60;3.40;;;25.40;41.90;;;;;;5012967;28;20204;-70
2022/05/10 11:47:00;;;;;;;3.60;3.40;;;25.40;41.90;;;;;;5012921;28;20283;-71
2022/05/10 11:49:52;;;;;;;3.47;3.28;;;25.30;41.90;;;;;;5012860;28;20274;-71
2022/05/10 11:52:45;;;;;;;3.83;3.60;;;25.40;41.90;;;;;;5013181;28;20207;-71
2022/05/10 11:55:23;;;;;;;4.00;3.78;;;25.40;41.90;;;;;;5013966;28;20280;-70
2022/05/10 11:57:50;;;;;;;3.83;3.63;;;25.40;42.00;;;;;;5012859;28;20224;-70
2022/05/10 12:02:57;;;;;;;3.22;3.03;;;25.40;42.00;;;;;;5067385;28;20241;-60
2022/05/10 12:05:27;;;;;;;3.38;3.17;;;25.40;42.00;;;;;;5053607;28;20192;-60
2022/05/10 12:07:54;;;;;;;3.85;3.55;;;25.30;41.90;;;;;;5052089;28;20222;-60
2022/05/10 12:10:35;;;;;;;3.05;2.85;;;25.30;42.00;;;;;;5053183;28;20207;-60
2022/05/10 12:13:06;;;;;;;3.40;3.20;;;25.30;42.00;;;;;;5052119;28;20218;-60
2022/05/10 12:21:21;;;;;;;3.65;3.35;;;25.30;42.10;;;;;;5019613;28;20195;-60
2022/05/10 12:24:11;;;;;;;3.83;3.53;;;25.30;42.10;;;;;;5057315;28;20229;-60
2022/05/10 12:26:43;;;;;;;3.30;3.10;;;25.30;42.10;;;;;;5057354;28;20176;-60
2022/05/10 12:29:34;;;;;;;3.53;3.33;;;25.30;42.30;;;;;;5057570;28;20211;-61
2022/05/10 12:32:04;;;;;;;3.25;3.05;;;25.30;42.20;;;;;;5057593;28;20582;-60
2022/05/10 12:34:47;;;;;;;3.35;3.10;;;25.30;42.20;;;;;;5056220;28;20561;-61
2022/05/10 12:37:49;;;;;;;3.42;3.22;;;25.30;42.30;;;;;;5055947;28;20625;-61
2022/05/10 12:40:51;;;;;;;3.72;3.45;;;25.20;42.30;;;;;;5057739;28;20604;-61
2022/05/10 12:43:56;;;;;;;3.35;3.15;;;25.20;42.40;;;;;;5044223;28;20226;-60
2022/05/10 12:46:29;;;;;;;3.30;3.10;;;25.20;42.40;;;;;;5057126;28;20167;-61
2022/05/10 12:49:25;;;;;;;3.63;3.42;;;25.20;42.50;;;;;;5055728;28;20594;-61
2022/05/10 12:52:01;;;;;;;3.15;2.95;;;25.20;42.50;;;;;;5056988;28;20184;-61
2022/05/10 12:54:33;;;;;;;3.40;3.20;;;25.20;42.60;;;;;;5055591;28;20199;-61
2022/05/10 12:57:06;;;;;;;3.38;3.17;;;25.10;42.60;;;;;;5056970;28;20183;-61
2022/05/10 12:59:36;;;;;;;3.50;3.30;;;25.10;42.60;;;;;;5056762;28;20306;-61
2022/05/10 13:02:04;;;;;;;3.58;3.38;;;25.10;42.60;;;;;;5055353;28;20246;-60
2022/05/10 13:04:33;;;;;;;3.45;3.25;;;25.10;42.70;;;;;;5056529;28;20191;-61
2022/05/10 13:07:02;;;;;;;3.50;3.30;;;25.10;42.70;;;;;;5056676;28;20191;-61
2022/05/10 13:09:31;;;;;;;3.60;3.40;;;25.10;42.70;;;;;;5056361;28;20211;-61
2022/05/10 13:12:03;;;;;;;3.30;3.10;;;25.10;42.80;;;;;;5055142;28;20196;-60
2022/05/10 13:14:30;;;;;;;3.22;3.03;;;25.10;42.80;;;;;;5055340;28;20231;-61
2022/05/10 13:16:59;;;;;;;3.40;3.20;;;25.10;42.80;;;;;;5056314;28;20754;-60
2022/05/10 13:19:27;;;;;;;3.70;3.50;;;25.00;42.80;;;;;;5056256;28;20647;-60
2022/05/10 13:21:55;;;;;;;3.50;3.30;;;25.00;42.80;;;;;;5056627;28;20207;-61
2022/05/10 13:24:22;;;;;;;3.20;3.00;;;25.00;42.90;;;;;;5056204;28;20226;-61
2022/05/10 13:26:51;;;;;;;3.65;3.45;;;25.00;42.90;;;;;;5054962;28;20207;-61